createdAt,value
2022-12-17T00:02:34.968Z,37.37
2022-12-17T00:05:20.409Z,33.67
2022-12-17T00:08:05.932Z,36.77
2022-12-17T00:10:51.519Z,41.77
2022-12-17T00:13:41.802Z,37.30
2022-12-17T00:16:27.488Z,32.23
2022-12-17T00:19:12.875Z,36.20
2022-12-17T00:21:58.488Z,38.43
2022-12-17T00:24:43.993Z,36.67
2022-12-17T00:27:29.510Z,33.67
2022-12-17T00:30:15.100Z,36.60
2022-12-17T00:33:00.491Z,38.73
2022-12-17T00:35:46.117Z,35.97
2022-12-17T00:38:36.078Z,38.57
2022-12-17T00:41:22.100Z,43.10
2022-12-17T00:44:07.611Z,39.43
2022-12-17T00:46:53.107Z,39.83
2022-12-17T00:49:38.406Z,39.77
2022-12-17T00:52:23.935Z,40.50
2022-12-17T00:55:09.500Z,39.10
2022-12-17T00:57:55.030Z,36.30
2022-12-17T01:00:41.915Z,42.60
2022-12-17T01:03:30.911Z,41.30
2022-12-17T01:06:20.894Z,38.63
2022-12-17T01:09:06.305Z,36.83
2022-12-17T01:11:51.808Z,39.20
2022-12-17T01:14:37.312Z,34.67
2022-12-17T01:17:22.823Z,43.73
2022-12-17T01:20:08.352Z,41.10
2022-12-17T01:22:53.607Z,40.63
2022-12-17T01:25:42.058Z,40.77
2022-12-17T01:28:27.625Z,36.80
2022-12-17T01:31:15.752Z,39.63
2022-12-17T01:34:01.077Z,40.10
2022-12-17T01:36:46.633Z,40.67
2022-12-17T01:39:31.999Z,41.00
2022-12-17T01:42:17.377Z,39.13
2022-12-17T01:45:05.219Z,33.87
2022-12-17T01:48:11.665Z,39.07
2022-12-17T01:51:01.924Z,36.73
2022-12-17T01:53:54.969Z,35.70
2022-12-17T01:56:42.661Z,37.23
2022-12-17T01:59:29.272Z,39.43
2022-12-17T02:02:14.914Z,38.27
2022-12-17T02:05:00.231Z,43.37
2022-12-17T02:07:57.134Z,42.90
2022-12-17T02:11:23.887Z,42.47
2022-12-17T02:14:26.571Z,38.20
2022-12-17T02:17:17.554Z,39.73
2022-12-17T02:20:16.730Z,37.40
2022-12-17T02:23:23.658Z,35.43
2022-12-17T02:26:16.509Z,35.13
2022-12-17T02:29:05.739Z,38.83
2022-12-17T02:31:54.509Z,34.73
2022-12-17T02:34:39.950Z,36.33
2022-12-17T02:37:25.390Z,34.20
2022-12-17T02:40:10.810Z,34.13
2022-12-17T02:42:56.405Z,37.27
2022-12-17T02:45:42.512Z,30.83
2022-12-17T02:48:30.075Z,35.30
2022-12-17T02:51:17.033Z,38.70
2022-12-17T02:54:04.609Z,33.97
2022-12-17T02:56:50.139Z,36.93
2022-12-17T02:59:35.750Z,33.03
2022-12-17T03:02:21.246Z,35.50
2022-12-17T03:05:35.580Z,35.97
2022-12-17T03:08:12.300Z,30.73
2022-12-17T03:10:57.700Z,33.70
2022-12-17T03:13:43.587Z,31.13
2022-12-17T03:16:37.075Z,34.40
2022-12-17T03:19:22.921Z,32.37
2022-12-17T03:22:08.426Z,39.27
2022-12-17T03:24:53.898Z,29.97
2022-12-17T03:27:39.494Z,33.57
2022-12-17T03:30:25.375Z,33.70
2022-12-17T03:33:10.585Z,36.10
2022-12-17T03:35:55.937Z,35.60
2022-12-17T03:38:41.397Z,37.57
2022-12-17T03:41:26.778Z,34.33
2022-12-17T03:44:12.279Z,36.23
2022-12-17T03:46:57.866Z,36.10
2022-12-17T03:49:43.413Z,32.20
2022-12-17T03:52:28.936Z,34.63
2022-12-17T03:55:14.404Z,32.30
2022-12-17T03:57:59.855Z,36.57
2022-12-17T04:00:45.397Z,40.43
2022-12-17T04:03:30.862Z,33.33
2022-12-17T04:06:16.426Z,37.00
2022-12-17T04:09:01.950Z,36.87
2022-12-17T04:11:47.289Z,38.27
2022-12-17T04:14:32.769Z,35.03
2022-12-17T04:17:18.164Z,37.13
2022-12-17T04:20:03.558Z,38.07
2022-12-17T04:22:48.970Z,33.30
2022-12-17T04:25:34.331Z,31.80
2022-12-17T04:28:19.851Z,37.97
2022-12-17T04:31:05.260Z,37.27
2022-12-17T04:33:50.602Z,40.43
2022-12-17T04:36:35.802Z,37.40
2022-12-17T04:39:21.250Z,35.80
2022-12-17T04:42:06.749Z,34.87
2022-12-17T04:44:52.288Z,34.13
2022-12-17T04:47:37.817Z,40.27
2022-12-17T04:50:23.665Z,39.30
2022-12-17T04:53:09.017Z,37.20
2022-12-17T04:55:54.480Z,35.13
2022-12-17T04:58:39.849Z,36.27
2022-12-17T05:01:25.436Z,38.10
2022-12-17T05:04:10.706Z,34.87
2022-12-17T05:06:56.212Z,38.77
2022-12-17T05:09:41.721Z,40.43
2022-12-17T05:12:30.190Z,45.90
2022-12-17T05:15:15.771Z,40.50
2022-12-17T05:18:01.114Z,42.23
2022-12-17T05:20:46.581Z,42.40
2022-12-17T05:23:32.323Z,42.90
2022-12-17T05:26:24.019Z,45.27
2022-12-17T05:29:15.467Z,40.17
2022-12-17T05:32:01.136Z,42.83
2022-12-17T05:34:46.711Z,39.37
2022-12-17T05:37:32.110Z,39.53
2022-12-17T05:40:17.652Z,35.23
2022-12-17T05:43:23.612Z,40.20
2022-12-17T05:46:09.539Z,34.43
2022-12-17T05:48:55.297Z,41.80
2022-12-17T05:51:40.922Z,37.40
2022-12-17T05:54:26.480Z,41.40
2022-12-17T05:57:12.631Z,41.67
2022-12-17T05:59:58.160Z,37.00
2022-12-17T06:02:43.784Z,38.90
2022-12-17T06:05:30.059Z,50.53
2022-12-17T06:08:25.754Z,36.70
2022-12-17T06:11:11.358Z,41.30
2022-12-17T06:13:57.392Z,36.77
2022-12-17T06:16:43.073Z,41.87
2022-12-17T06:19:28.460Z,36.63
2022-12-17T06:22:13.958Z,38.77
2022-12-17T06:24:59.531Z,41.40
2022-12-17T06:27:44.958Z,35.00
2022-12-17T06:30:30.432Z,35.17
2022-12-17T06:33:31.555Z,34.67
2022-12-17T06:36:21.985Z,35.97
2022-12-17T06:39:08.139Z,32.83
2022-12-17T06:42:00.328Z,39.90
2022-12-17T06:44:49.387Z,39.67
2022-12-17T06:47:34.790Z,43.57
2022-12-17T06:50:20.330Z,45.30
2022-12-17T06:53:05.918Z,38.37
2022-12-17T06:55:51.273Z,45.67
2022-12-17T06:58:36.871Z,45.63
2022-12-17T07:01:23.356Z,41.80
2022-12-17T07:04:08.535Z,34.43
2022-12-17T07:06:54.141Z,51.10
2022-12-17T07:09:39.493Z,41.60
2022-12-17T07:12:24.844Z,43.53
2022-12-17T07:15:10.288Z,39.10
2022-12-17T07:17:55.843Z,39.10
2022-12-17T07:20:41.366Z,44.90
2022-12-17T07:23:27.315Z,47.23
2022-12-17T07:26:12.893Z,47.07
2022-12-17T07:28:58.380Z,49.93
2022-12-17T07:31:43.839Z,51.13
2022-12-17T07:34:29.447Z,43.57
2022-12-17T07:37:20.218Z,42.43
2022-12-17T07:40:06.053Z,44.37
2022-12-17T07:42:51.610Z,38.37
2022-12-17T07:45:37.299Z,42.00
2022-12-17T07:48:23.176Z,42.10
2022-12-17T07:51:09.142Z,44.93
2022-12-17T07:53:54.551Z,46.50
2022-12-17T07:56:40.579Z,44.00
2022-12-17T07:59:45.933Z,47.10
2022-12-17T08:02:31.443Z,45.13
2022-12-17T08:05:17.052Z,49.60
2022-12-17T08:08:02.591Z,49.57
2022-12-17T08:10:47.934Z,50.03
2022-12-17T08:13:33.590Z,46.70
2022-12-17T08:16:18.924Z,51.47
2022-12-17T08:19:04.208Z,48.03
2022-12-17T08:21:49.621Z,45.63
2022-12-17T08:24:34.999Z,48.07
2022-12-17T08:27:20.429Z,46.33
2022-12-17T08:30:05.873Z,53.97
2022-12-17T08:32:51.439Z,51.03
2022-12-17T08:35:36.900Z,49.47
2022-12-17T08:38:23.859Z,59.90
2022-12-17T08:41:09.461Z,42.77
2022-12-17T08:43:54.835Z,50.03
2022-12-17T08:46:40.417Z,51.03
2022-12-17T08:49:25.860Z,46.60
2022-12-17T08:52:11.263Z,42.17
2022-12-17T08:54:56.605Z,48.17
2022-12-17T08:57:42.111Z,51.10
2022-12-17T09:00:28.527Z,48.27
2022-12-17T09:03:21.046Z,48.23
2022-12-17T09:06:06.836Z,51.97
2022-12-17T09:08:52.401Z,54.67
2022-12-17T09:11:37.949Z,49.07
2022-12-17T09:14:23.341Z,49.30
2022-12-17T09:17:08.988Z,52.97
2022-12-17T09:19:54.304Z,52.30
2022-12-17T09:22:39.787Z,55.00
2022-12-17T09:25:25.382Z,52.83
2022-12-17T09:28:10.693Z,44.60
2022-12-17T09:30:56.189Z,47.77
2022-12-17T09:33:41.561Z,40.83
2022-12-17T09:36:27.490Z,48.00
2022-12-17T09:39:13.055Z,45.63
2022-12-17T09:42:22.633Z,41.93
2022-12-17T09:45:18.895Z,52.20
2022-12-17T09:48:06.911Z,40.97
2022-12-17T09:50:52.479Z,47.43
2022-12-17T09:53:50.731Z,47.40
2022-12-17T09:56:41.095Z,47.40
2022-12-17T09:59:38.158Z,54.93
2022-12-17T10:02:34.034Z,39.63
2022-12-17T10:05:22.502Z,49.20
2022-12-17T10:08:10.516Z,49.00
2022-12-17T10:11:01.663Z,47.23
2022-12-17T10:13:47.180Z,48.83
2022-12-17T10:17:11.860Z,46.87
2022-12-17T10:20:00.405Z,44.53
2022-12-17T10:22:46.486Z,52.93
2022-12-17T10:25:36.056Z,50.10
2022-12-17T10:28:25.485Z,43.53
2022-12-17T10:31:10.994Z,48.43
2022-12-17T10:33:58.409Z,50.43
2022-12-17T10:36:46.060Z,57.67
2022-12-17T10:39:42.749Z,44.40
2022-12-17T10:42:46.188Z,41.93
2022-12-17T10:45:43.843Z,47.80
2022-12-17T10:48:41.133Z,49.17
2022-12-17T10:51:46.309Z,51.03
2022-12-17T10:54:49.978Z,49.50
2022-12-17T10:57:56.560Z,51.47
2022-12-17T11:00:50.351Z,55.20
2022-12-17T11:04:05.562Z,51.70
2022-12-17T11:07:01.394Z,47.37
2022-12-17T11:09:53.597Z,42.87
2022-12-17T11:12:44.833Z,51.30
2022-12-17T11:15:48.720Z,50.53
2022-12-17T11:18:40.405Z,52.13
2022-12-17T11:21:46.808Z,52.53
2022-12-17T11:24:41.854Z,45.77
2022-12-17T11:27:31.622Z,49.20
2022-12-17T11:30:16.803Z,49.87
2022-12-17T11:33:19.437Z,49.93
2022-12-17T11:36:17.943Z,51.20
2022-12-17T11:39:22.024Z,48.43
2022-12-17T11:42:23.912Z,51.90
2022-12-17T11:45:22.083Z,52.23
2022-12-17T11:48:19.364Z,54.70
2022-12-17T11:51:15.152Z,45.77
2022-12-17T11:54:34.397Z,49.00
2022-12-17T11:58:01.526Z,42.67
2022-12-17T12:00:49.474Z,43.40
2022-12-17T12:03:51.649Z,43.27
2022-12-17T12:06:49.189Z,50.07
2022-12-17T12:09:59.340Z,42.40
2022-12-17T12:12:50.926Z,50.70
2022-12-17T12:15:48.329Z,55.73
2022-12-17T12:19:11.689Z,51.77
2022-12-17T12:22:00.924Z,58.57
2022-12-17T12:25:07.362Z,47.87
2022-12-17T12:28:07.383Z,45.33
2022-12-17T12:31:05.803Z,53.23
2022-12-17T12:34:00.031Z,55.93
2022-12-17T12:36:46.652Z,54.77
2022-12-17T12:39:38.087Z,49.40
2022-12-17T12:42:23.646Z,47.70
2022-12-17T12:45:23.490Z,62.53
2022-12-17T12:48:16.879Z,46.03
2022-12-17T12:51:09.542Z,49.07
2022-12-17T12:53:54.627Z,51.63
2022-12-17T12:56:51.155Z,54.40
2022-12-17T12:59:46.825Z,57.23
2022-12-17T13:02:46.665Z,50.00
2022-12-17T13:05:34.885Z,49.63
2022-12-17T13:08:24.137Z,51.77
2022-12-17T13:10:53.227Z,50.80
2022-12-17T13:13:30.819Z,50.80
2022-12-17T13:16:15.735Z,48.67
2022-12-17T13:18:42.639Z,54.23
2022-12-17T13:21:15.141Z,56.60
2022-12-17T13:23:42.332Z,54.07
2022-12-17T13:26:42.252Z,49.67
2022-12-17T13:29:19.836Z,60.93
2022-12-17T13:32:22.222Z,47.90
2022-12-17T13:34:48.972Z,50.20
2022-12-17T13:37:18.404Z,49.03
2022-12-17T13:39:50.503Z,51.07
2022-12-17T13:42:32.415Z,46.97
2022-12-17T13:44:59.804Z,52.57
2022-12-17T13:47:30.723Z,51.87
2022-12-17T13:50:32.132Z,45.27
2022-12-17T13:52:46.769Z,56.60
2022-12-17T13:55:22.610Z,57.90
2022-12-17T13:57:50.445Z,55.53
2022-12-17T14:00:24.867Z,59.87
2022-12-17T14:02:52.832Z,47.70
2022-12-17T14:05:28.839Z,50.13
2022-12-17T14:07:59.923Z,49.63
2022-12-17T14:10:28.013Z,49.07
2022-12-17T14:13:10.623Z,54.77
2022-12-17T14:15:37.565Z,47.67
2022-12-17T14:18:05.144Z,51.60
2022-12-17T14:20:35.286Z,43.40
2022-12-17T14:23:06.710Z,47.00
2022-12-17T14:25:37.907Z,42.13
2022-12-17T14:28:32.703Z,48.17
2022-12-17T14:31:27.940Z,37.43
2022-12-17T14:34:01.346Z,35.47
2022-12-17T14:36:29.497Z,40.27
2022-12-17T14:38:59.842Z,49.73
2022-12-17T14:41:46.963Z,48.63
2022-12-17T14:44:21.629Z,44.10
2022-12-17T14:46:49.761Z,42.83
2022-12-17T14:49:21.628Z,47.60
2022-12-17T14:51:50.192Z,42.10
2022-12-17T14:54:26.059Z,50.97
2022-12-17T14:56:55.673Z,47.53
2022-12-17T14:59:25.200Z,47.20
2022-12-17T15:01:56.195Z,47.53
2022-12-17T15:04:23.739Z,41.33
2022-12-17T15:06:53.956Z,41.50
2022-12-17T15:09:20.757Z,40.87
2022-12-17T15:11:47.535Z,42.67
2022-12-17T15:14:14.260Z,43.73
2022-12-17T15:16:41.301Z,46.80
2022-12-17T15:19:08.147Z,48.47
2022-12-17T15:21:34.993Z,42.60
2022-12-17T15:24:02.012Z,44.53
2022-12-17T15:26:28.744Z,42.83
2022-12-17T15:28:55.673Z,45.87
2022-12-17T15:31:25.565Z,50.43
2022-12-17T15:33:54.257Z,43.80
2022-12-17T15:36:20.996Z,41.03
2022-12-17T15:38:47.740Z,43.03
2022-12-17T15:41:33.038Z,42.43
2022-12-17T15:43:59.896Z,45.53
2022-12-17T15:46:26.782Z,46.83
2022-12-17T15:48:53.572Z,45.93
2022-12-17T15:51:21.181Z,46.17
2022-12-17T15:53:48.427Z,47.50
2022-12-17T15:56:21.613Z,44.50
2022-12-17T15:58:48.529Z,43.97
2022-12-17T16:01:15.837Z,47.20
2022-12-17T16:03:42.886Z,43.17
2022-12-17T16:06:10.230Z,46.03
2022-12-17T16:08:40.755Z,48.77
2022-12-17T16:11:09.306Z,48.97
2022-12-17T16:13:36.834Z,51.73
2022-12-17T16:16:04.546Z,43.33
2022-12-17T16:18:31.622Z,50.77
2022-12-17T16:21:06.641Z,49.70
2022-12-17T16:23:34.145Z,49.43
2022-12-17T16:26:03.019Z,52.20
2022-12-17T16:28:31.063Z,50.77
2022-12-17T16:31:03.555Z,55.23
2022-12-17T16:33:39.233Z,52.50
2022-12-17T16:36:07.540Z,47.63
2022-12-17T16:38:35.356Z,43.73
2022-12-17T16:41:03.775Z,45.40
2022-12-17T16:43:34.119Z,54.20
2022-12-17T16:46:01.786Z,44.97
2022-12-17T16:48:28.634Z,50.97
2022-12-17T16:50:55.462Z,48.50
2022-12-17T16:53:22.418Z,47.97
2022-12-17T16:55:50.087Z,51.37
2022-12-17T16:58:18.083Z,97.63
2022-12-17T17:00:46.385Z,41.80
2022-12-17T17:03:13.665Z,44.37
2022-12-17T17:05:40.861Z,44.33
2022-12-17T17:08:07.690Z,49.07
2022-12-17T17:10:37.044Z,48.60
2022-12-17T17:13:04.493Z,46.03
2022-12-17T17:15:31.340Z,45.70
2022-12-17T17:18:01.523Z,40.80
2022-12-17T17:20:32.423Z,50.13
2022-12-17T17:23:00.003Z,48.27
2022-12-17T17:25:43.849Z,49.87
2022-12-17T17:28:13.728Z,42.47
2022-12-17T17:30:40.607Z,43.63
2022-12-17T17:33:07.353Z,49.93
2022-12-17T17:35:34.129Z,44.73
2022-12-17T17:38:00.995Z,54.83
2022-12-17T17:40:27.730Z,45.80
2022-12-17T17:42:54.562Z,52.93
2022-12-17T17:45:21.337Z,56.87
2022-12-17T17:47:48.070Z,60.30
2022-12-17T17:50:14.920Z,53.83
2022-12-17T17:52:41.645Z,56.43
2022-12-17T17:55:08.557Z,49.50
2022-12-17T17:57:35.310Z,51.20
2022-12-17T18:00:02.840Z,58.43
2022-12-17T18:02:29.825Z,62.27
2022-12-17T18:04:56.788Z,52.30
2022-12-17T18:07:26.067Z,52.83
2022-12-17T18:09:53.917Z,53.47
2022-12-17T18:12:39.220Z,53.43
2022-12-17T18:15:15.688Z,47.07
2022-12-17T18:17:49.615Z,56.33
2022-12-17T18:20:17.036Z,50.63
2022-12-17T18:22:46.114Z,59.47
2022-12-17T18:25:13.346Z,56.63
2022-12-17T18:27:40.176Z,65.00
2022-12-17T18:30:07.545Z,59.90
2022-12-17T18:32:34.353Z,59.33
2022-12-17T18:35:01.136Z,63.43
2022-12-17T18:37:27.922Z,67.83
2022-12-17T18:39:54.709Z,64.53
2022-12-17T18:42:39.942Z,52.40
2022-12-17T18:45:07.401Z,54.37
2022-12-17T18:47:34.215Z,57.63
2022-12-17T18:50:01.013Z,63.00
2022-12-17T18:52:27.868Z,54.70
2022-12-17T18:54:54.673Z,56.50
2022-12-17T18:57:21.552Z,52.27
2022-12-17T18:59:49.178Z,52.80
2022-12-17T19:02:16.215Z,53.17
2022-12-17T19:04:43.075Z,53.07
2022-12-17T19:07:10.606Z,55.23
2022-12-17T19:09:39.536Z,66.63
2022-12-17T19:12:08.183Z,63.37
2022-12-17T19:14:35.541Z,58.73
2022-12-17T19:17:03.063Z,64.93
2022-12-17T19:19:29.927Z,57.67
2022-12-17T19:21:59.616Z,64.10
2022-12-17T19:24:26.551Z,56.17
2022-12-17T19:26:53.403Z,60.43
2022-12-17T19:29:20.902Z,59.00
2022-12-17T19:31:48.121Z,49.47
2022-12-17T19:34:17.413Z,58.20
2022-12-17T19:36:45.150Z,50.07
2022-12-17T19:39:14.937Z,64.83
2022-12-17T19:41:41.816Z,54.63
2022-12-17T19:44:12.092Z,55.23
2022-12-17T19:46:39.405Z,58.93
2022-12-17T19:49:06.194Z,58.73
2022-12-17T19:51:33.414Z,50.27
2022-12-17T19:54:06.391Z,55.40
2022-12-17T19:56:35.803Z,62.30
2022-12-17T19:59:06.932Z,51.80
2022-12-17T20:01:36.699Z,49.60
2022-12-17T20:04:04.180Z,57.07
2022-12-17T20:06:32.868Z,55.97
2022-12-17T20:09:00.329Z,55.50
2022-12-17T20:11:34.030Z,51.63
2022-12-17T20:14:05.580Z,47.43
2022-12-17T20:16:43.890Z,54.00
2022-12-17T20:19:19.759Z,57.10
2022-12-17T20:21:47.338Z,50.50
2022-12-17T20:24:15.267Z,58.17
2022-12-17T20:26:42.885Z,49.13
2022-12-17T20:29:09.717Z,45.90
2022-12-17T20:31:37.037Z,53.90
2022-12-17T20:34:06.065Z,49.80
2022-12-17T20:36:33.142Z,48.80
2022-12-17T20:39:00.470Z,54.23
2022-12-17T20:41:29.240Z,50.57
2022-12-17T20:43:57.130Z,48.63
2022-12-17T20:46:25.085Z,44.97
2022-12-17T20:48:52.541Z,46.33
2022-12-17T20:51:23.489Z,46.07
2022-12-17T20:53:50.815Z,41.83
2022-12-17T20:56:20.462Z,45.57
2022-12-17T20:58:47.639Z,47.33
2022-12-17T21:01:19.794Z,48.80
2022-12-17T21:03:49.509Z,47.07
2022-12-17T21:06:21.894Z,51.80
2022-12-17T21:08:50.976Z,51.43
2022-12-17T21:11:21.274Z,46.13
2022-12-17T21:13:48.135Z,47.67
2022-12-17T21:16:18.419Z,46.30
2022-12-17T21:18:45.398Z,45.23
2022-12-17T21:21:21.266Z,42.67
2022-12-17T21:23:48.790Z,49.83
2022-12-17T21:26:26.141Z,40.70
2022-12-17T21:28:54.510Z,40.50
2022-12-17T21:31:26.664Z,40.07
2022-12-17T21:33:58.355Z,40.97
2022-12-17T21:36:27.709Z,38.63
2022-12-17T21:38:54.927Z,46.40
2022-12-17T21:41:24.823Z,35.47
2022-12-17T21:43:56.710Z,50.40
2022-12-17T21:46:23.980Z,43.57
2022-12-17T21:48:52.522Z,31.77
2022-12-17T21:51:20.244Z,36.10
2022-12-17T21:53:47.646Z,38.83
2022-12-17T21:56:16.998Z,39.73
2022-12-17T21:58:45.702Z,34.50
2022-12-17T22:01:18.187Z,36.37
2022-12-17T22:03:47.662Z,35.13
2022-12-17T22:06:22.182Z,36.23
2022-12-17T22:08:50.187Z,37.07
2022-12-17T22:11:24.955Z,39.07
2022-12-17T22:14:16.937Z,39.50
2022-12-17T22:16:48.878Z,39.73
2022-12-17T22:19:22.634Z,37.80
2022-12-17T22:21:50.934Z,41.73
2022-12-17T22:24:20.603Z,41.03
2022-12-17T22:26:47.879Z,46.73
2022-12-17T22:29:35.459Z,41.70
2022-12-17T22:32:21.363Z,41.37
2022-12-17T22:36:15.343Z,41.90
2022-12-17T22:40:52.371Z,36.40
2022-12-17T22:44:30.557Z,41.27
2022-12-17T22:44:42.469Z,37.50
2022-12-17T22:46:17.814Z,41.73
2022-12-17T22:48:44.695Z,34.80
2022-12-17T22:51:12.363Z,39.13
2022-12-17T22:53:45.630Z,42.53
2022-12-17T22:56:22.401Z,38.47
2022-12-17T22:58:59.425Z,33.80
2022-12-17T23:01:26.744Z,37.77
2022-12-17T23:03:58.590Z,38.97
2022-12-17T23:06:26.476Z,39.93
2022-12-17T23:08:53.428Z,45.93
2022-12-17T23:11:22.843Z,39.63
2022-12-17T23:13:50.250Z,42.47
2022-12-17T23:16:17.245Z,42.23
2022-12-17T23:18:45.681Z,41.23
2022-12-17T23:21:15.578Z,36.80
2022-12-17T23:23:42.867Z,38.43
2022-12-17T23:26:15.332Z,36.87
2022-12-17T23:28:42.525Z,37.60
2022-12-17T23:31:11.553Z,43.53
2022-12-17T23:33:38.783Z,42.00
2022-12-17T23:36:12.089Z,45.50
2022-12-17T23:38:39.649Z,41.13
2022-12-17T23:41:08.546Z,40.63
2022-12-17T23:43:35.935Z,43.20
2022-12-17T23:46:03.722Z,50.47
2022-12-17T23:48:32.448Z,40.30
2022-12-17T23:50:59.775Z,45.07
2022-12-17T23:53:27.851Z,36.00
2022-12-17T23:55:54.750Z,36.43
2022-12-17T23:58:22.156Z,42.07
